Weather at Aldinga Airport

Public forecast

Using degrees Celsius for public forecast. Weather courtesy of forecast.io.

Closest aviation weather report (METAR) to Aldinga Airport

Closest report is Adelaide International Airport, 20.8 nm (38.5 km) N. Retrieved 2020/10/26 23:30 UTC (0 seconds ago):

YPAD 262330Z 00000KT 9999 FEW024 SCT057 BKN095 16/10 Q1020 NOSIG

Closest aviation forecast (TAF) to Aldinga Airport

Closest forecast is Adelaide International Airport, 20.8 nm (38.5 km) N. Retrieved 2020/10/26 18:00 UTC (5 hours ago):

TAF YPAD 261708Z 2618/2800 16007KT 9999 FEW050 FM270400 21011KT 9999 -SHRA SCT045 FM270900 14008KT CAVOK FM271600 05005KT CAVOK